createdAt,value
2022-09-11T00:00:53.465Z,16.41
2022-09-11T00:01:53.477Z,16.38
2022-09-11T00:02:53.467Z,16.37
2022-09-11T00:03:53.396Z,16.40
2022-09-11T00:04:53.393Z,16.38
2022-09-11T00:05:53.407Z,16.40
2022-09-11T00:06:53.363Z,16.34
2022-09-11T00:07:53.353Z,16.34
2022-09-11T00:08:53.337Z,16.33
2022-09-11T00:09:53.317Z,16.31
2022-09-11T00:10:53.337Z,16.30
2022-09-11T00:11:53.289Z,16.26
2022-09-11T00:12:53.277Z,16.26
2022-09-11T00:13:53.267Z,16.30
2022-09-11T00:14:53.284Z,16.30
2022-09-11T00:15:53.312Z,16.26
2022-09-11T00:16:53.233Z,16.27
2022-09-11T00:17:53.215Z,16.30
2022-09-11T00:18:53.200Z,16.27
2022-09-11T00:19:53.179Z,16.30
2022-09-11T00:20:53.197Z,16.23
2022-09-11T00:21:53.156Z,16.26
2022-09-11T00:22:53.189Z,16.25
2022-09-11T00:23:53.131Z,16.23
2022-09-11T00:24:53.121Z,16.25
2022-09-11T00:25:53.121Z,16.26
2022-09-11T00:26:53.110Z,16.25
2022-09-11T00:27:53.073Z,16.26
2022-09-11T00:28:53.061Z,16.22
2022-09-11T00:29:53.041Z,16.22
2022-09-11T00:30:53.085Z,16.22
2022-09-11T00:31:53.018Z,16.18
2022-09-11T00:32:53.012Z,16.22
2022-09-11T00:33:53.003Z,16.20
2022-09-11T00:34:52.980Z,16.15
2022-09-11T00:35:52.982Z,16.14
2022-09-11T00:36:52.952Z,16.14
2022-09-11T00:37:52.933Z,16.15
2022-09-11T00:38:52.922Z,16.11
2022-09-11T00:39:52.915Z,16.14
2022-09-11T00:40:52.923Z,16.11
2022-09-11T00:41:52.901Z,16.06
2022-09-11T00:42:52.874Z,16.09
2022-09-11T00:43:52.851Z,16.12
2022-09-11T00:44:52.844Z,16.09
2022-09-11T00:45:52.899Z,16.07
2022-09-11T00:46:52.835Z,16.06
2022-09-11T00:47:52.795Z,16.03
2022-09-11T00:48:52.811Z,16.01
2022-09-11T00:49:52.786Z,16.03
2022-09-11T00:50:52.816Z,16.01
2022-09-11T00:51:52.745Z,16.01
2022-09-11T00:52:53.291Z,15.96
2022-09-11T00:53:52.715Z,15.97
2022-09-11T00:54:52.726Z,15.96
2022-09-11T00:55:52.716Z,16.00
2022-09-11T00:56:52.684Z,15.96
2022-09-11T00:57:52.664Z,15.96
2022-09-11T00:58:52.646Z,15.97
2022-09-11T00:59:52.636Z,15.97
2022-09-11T01:00:52.688Z,15.96
2022-09-11T01:01:52.644Z,15.96
2022-09-11T01:02:52.598Z,15.99
2022-09-11T01:03:52.591Z,15.99
2022-09-11T01:04:52.585Z,16.00
2022-09-11T01:05:52.576Z,16.01
2022-09-11T01:06:52.553Z,16.03
2022-09-11T01:07:52.528Z,16.04
2022-09-11T01:08:52.563Z,16.07
2022-09-11T01:09:52.496Z,16.04
2022-09-11T01:10:52.516Z,16.07
2022-09-11T01:11:52.477Z,16.09
2022-09-11T01:12:52.469Z,16.11
2022-09-11T01:13:52.448Z,16.07
2022-09-11T01:14:52.429Z,16.11
2022-09-11T01:15:52.452Z,16.11
2022-09-11T01:16:52.408Z,16.12
2022-09-11T01:17:52.407Z,16.12
2022-09-11T01:18:52.380Z,16.14
2022-09-11T01:19:52.360Z,16.15
2022-09-11T01:20:52.391Z,16.15
2022-09-11T01:21:52.365Z,16.12
2022-09-11T01:22:52.327Z,16.12
2022-09-11T01:23:52.309Z,16.12
2022-09-11T01:24:52.333Z,16.09
2022-09-11T01:25:52.294Z,16.14
2022-09-11T01:26:52.276Z,16.14
2022-09-11T01:27:52.260Z,16.14
2022-09-11T01:28:52.242Z,16.14
2022-09-11T01:29:52.229Z,16.18
2022-09-11T01:30:52.243Z,16.16
2022-09-11T01:31:52.207Z,16.16
2022-09-11T01:32:52.203Z,16.15
2022-09-11T01:33:52.173Z,16.16
2022-09-11T01:34:52.164Z,16.16
2022-09-11T01:35:52.164Z,16.16
2022-09-11T01:36:52.130Z,16.14
2022-09-11T01:37:52.114Z,16.11
2022-09-11T01:38:52.104Z,16.09
2022-09-11T01:39:52.177Z,16.07
2022-09-11T01:40:52.105Z,16.09
2022-09-11T01:41:52.062Z,16.09
2022-09-11T01:42:52.052Z,16.09
2022-09-11T01:43:52.047Z,16.14
2022-09-11T01:44:52.025Z,16.12
2022-09-11T01:45:52.117Z,16.18
2022-09-11T01:46:52.015Z,16.18
2022-09-11T01:47:51.975Z,16.18
2022-09-11T01:48:51.968Z,16.22
2022-09-11T01:49:51.948Z,16.22
2022-09-11T01:50:51.966Z,16.20
2022-09-11T01:51:51.976Z,16.18
2022-09-11T01:52:51.926Z,16.22
2022-09-11T01:53:52.037Z,16.25
2022-09-11T01:54:51.887Z,16.26
2022-09-11T01:55:51.895Z,16.25
2022-09-11T01:56:51.857Z,16.22
2022-09-11T01:57:51.838Z,16.23
2022-09-11T01:58:51.836Z,16.22
2022-09-11T01:59:51.818Z,16.22
2022-09-11T02:00:51.854Z,16.23
2022-09-11T02:01:51.857Z,16.23
2022-09-11T02:02:51.779Z,16.20
2022-09-11T02:03:51.759Z,16.22
2022-09-11T02:04:51.749Z,16.20
2022-09-11T02:05:51.760Z,16.16
2022-09-11T02:06:51.722Z,16.22
2022-09-11T02:07:51.710Z,16.20
2022-09-11T02:08:51.700Z,16.15
2022-09-11T02:09:51.801Z,16.14
2022-09-11T02:10:51.683Z,16.12
2022-09-11T02:11:51.670Z,16.12
2022-09-11T02:12:51.661Z,16.15
2022-09-11T02:13:51.621Z,16.16
2022-09-11T02:14:51.639Z,16.14
2022-09-11T02:15:51.620Z,16.12
2022-09-11T02:16:51.581Z,16.14
2022-09-11T02:17:51.569Z,16.14
2022-09-11T02:18:51.563Z,16.18
2022-09-11T02:19:51.582Z,16.16
2022-09-11T02:20:51.562Z,16.12
2022-09-11T02:21:51.542Z,16.15
2022-09-11T02:22:51.509Z,16.18
2022-09-11T02:23:51.493Z,16.15
2022-09-11T02:24:51.505Z,16.18
2022-09-11T02:25:51.463Z,16.20
2022-09-11T02:26:51.455Z,16.18
2022-09-11T02:27:51.434Z,16.20
2022-09-11T02:28:51.446Z,16.22
2022-09-11T02:29:51.434Z,16.16
2022-09-11T02:30:51.432Z,16.20
2022-09-11T02:31:51.405Z,16.20
2022-09-11T02:32:51.392Z,16.16
2022-09-11T02:33:51.352Z,16.16
2022-09-11T02:34:51.367Z,16.14
2022-09-11T02:35:51.326Z,16.15
2022-09-11T02:36:51.314Z,16.16
2022-09-11T02:37:51.304Z,16.16
2022-09-11T02:38:51.286Z,16.18
2022-09-11T02:39:51.346Z,16.20
2022-09-11T02:40:51.318Z,16.22
2022-09-11T02:41:51.247Z,16.25
2022-09-11T02:42:51.237Z,16.25
2022-09-11T02:43:51.218Z,16.22
2022-09-11T02:44:51.276Z,16.18
2022-09-11T02:45:51.239Z,16.20
2022-09-11T02:46:51.178Z,16.18
2022-09-11T02:47:51.157Z,16.20
2022-09-11T02:48:51.160Z,16.18
2022-09-11T02:49:51.138Z,16.18
2022-09-11T02:50:51.171Z,16.22
2022-09-11T02:51:51.109Z,16.25
2022-09-11T02:52:51.099Z,16.23
2022-09-11T02:53:51.078Z,16.30
2022-09-11T02:54:51.089Z,16.27
2022-09-11T02:55:51.050Z,16.23
2022-09-11T02:56:51.040Z,16.22
2022-09-11T02:57:51.027Z,16.25
2022-09-11T02:58:51.018Z,16.22
2022-09-11T02:59:51.020Z,16.20
2022-09-11T03:00:51.033Z,16.20
2022-09-11T03:01:51.002Z,16.16
2022-09-11T03:02:50.974Z,16.15
2022-09-11T03:03:50.941Z,16.15
2022-09-11T03:04:50.971Z,16.14
2022-09-11T03:05:50.919Z,16.18
2022-09-11T03:06:50.908Z,16.18
2022-09-11T03:07:50.896Z,16.15
2022-09-11T03:08:50.883Z,16.15
2022-09-11T03:09:51.003Z,16.15
2022-09-11T03:10:50.855Z,16.15
2022-09-11T03:11:50.831Z,16.20
2022-09-11T03:12:50.831Z,16.20
2022-09-11T03:13:50.811Z,16.16
2022-09-11T03:14:50.825Z,16.18
2022-09-11T03:15:50.781Z,16.16
2022-09-11T03:16:50.764Z,16.12
2022-09-11T03:17:50.753Z,16.12
2022-09-11T03:18:50.743Z,16.16
2022-09-11T03:19:50.754Z,16.16
2022-09-11T03:20:50.712Z,16.18
2022-09-11T03:21:50.704Z,16.14
2022-09-11T03:22:50.702Z,16.09
2022-09-11T03:23:50.675Z,16.06
2022-09-11T03:24:50.714Z,16.04
2022-09-11T03:25:50.655Z,16.07
2022-09-11T03:26:50.625Z,16.11
2022-09-11T03:27:50.647Z,16.11
2022-09-11T03:28:50.605Z,16.15
2022-09-11T03:29:50.616Z,16.18
2022-09-11T03:30:50.587Z,16.15
2022-09-11T03:31:50.613Z,16.22
2022-09-11T03:32:50.546Z,16.22
2022-09-11T03:33:50.537Z,16.12
2022-09-11T03:34:50.557Z,16.11
2022-09-11T03:35:50.527Z,16.06
2022-09-11T03:36:50.499Z,16.07
2022-09-11T03:37:50.490Z,16.06
2022-09-11T03:38:50.468Z,16.09
2022-09-11T03:39:50.500Z,16.12
2022-09-11T03:40:50.467Z,16.07
2022-09-11T03:41:50.436Z,16.06
2022-09-11T03:42:50.418Z,16.04
2022-09-11T03:43:50.415Z,16.11
2022-09-11T03:44:50.388Z,16.12
2022-09-11T03:45:50.429Z,16.14
2022-09-11T03:46:50.359Z,16.12
2022-09-11T03:47:50.390Z,16.15
2022-09-11T03:48:50.337Z,16.15
2022-09-11T03:49:50.323Z,16.15
2022-09-11T03:50:50.358Z,16.18
2022-09-11T03:51:50.299Z,16.20
2022-09-11T03:52:50.280Z,16.22
2022-09-11T03:53:50.280Z,16.22
2022-09-11T03:54:50.251Z,16.16
2022-09-11T03:55:50.278Z,16.11
2022-09-11T03:56:50.220Z,16.12
2022-09-11T03:57:50.222Z,16.11
2022-09-11T03:58:50.203Z,16.09
2022-09-11T03:59:50.192Z,16.11
2022-09-11T04:00:50.227Z,16.11
2022-09-11T04:01:50.219Z,16.11
2022-09-11T04:02:50.150Z,16.07
2022-09-11T04:03:50.132Z,16.07
2022-09-11T04:04:50.180Z,16.06
2022-09-11T04:05:50.163Z,16.11
2022-09-11T04:06:50.102Z,16.06
2022-09-11T04:07:50.080Z,16.06
2022-09-11T04:08:50.063Z,16.03
2022-09-11T04:09:50.053Z,16.06
2022-09-11T04:10:50.086Z,16.03
2022-09-11T04:11:50.030Z,16.00
2022-09-11T04:12:50.018Z,15.99
2022-09-11T04:13:50.007Z,16.01
2022-09-11T04:14:49.975Z,16.00
2022-09-11T04:15:50.001Z,15.94
2022-09-11T04:16:49.950Z,15.94
2022-09-11T04:17:49.953Z,15.93
2022-09-11T04:18:49.926Z,15.94
2022-09-11T04:19:49.913Z,15.96
2022-09-11T04:20:49.928Z,15.96
2022-09-11T04:21:49.906Z,15.97
2022-09-11T04:22:49.868Z,15.96
2022-09-11T04:23:49.864Z,15.93
2022-09-11T04:24:49.837Z,15.86
2022-09-11T04:25:49.855Z,15.82
2022-09-11T04:26:49.816Z,15.82
2022-09-11T04:27:49.805Z,15.84
2022-09-11T04:28:49.786Z,15.82
2022-09-11T04:29:49.777Z,15.82
2022-09-11T04:30:49.777Z,15.85
2022-09-11T04:31:49.778Z,15.86
2022-09-11T04:32:49.728Z,15.85
2022-09-11T04:33:49.718Z,15.86
2022-09-11T04:34:49.699Z,15.89
2022-09-11T04:35:49.720Z,15.89
2022-09-11T04:36:49.680Z,15.94
2022-09-11T04:37:49.669Z,15.92
2022-09-11T04:38:49.650Z,15.88
2022-09-11T04:39:49.659Z,15.86
2022-09-11T04:40:49.658Z,15.85
2022-09-11T04:41:49.626Z,15.86
2022-09-11T04:42:49.615Z,15.82
2022-09-11T04:43:49.590Z,15.82
2022-09-11T04:44:49.560Z,15.79
2022-09-11T04:45:49.610Z,15.82
2022-09-11T04:46:49.540Z,15.81
2022-09-11T04:47:49.532Z,15.81
2022-09-11T04:48:49.512Z,15.84
2022-09-11T04:49:49.501Z,15.82
2022-09-11T04:50:49.528Z,15.88
2022-09-11T04:51:49.490Z,15.89
2022-09-11T04:52:49.464Z,15.94
2022-09-11T04:53:49.452Z,15.94
2022-09-11T04:54:49.430Z,15.93
2022-09-11T04:55:49.442Z,15.96
2022-09-11T04:56:49.424Z,15.93
2022-09-11T04:57:49.401Z,15.89
2022-09-11T04:58:49.389Z,15.92
2022-09-11T04:59:49.410Z,15.89
2022-09-11T05:00:49.399Z,15.89
2022-09-11T05:01:49.397Z,15.94
2022-09-11T05:02:49.326Z,15.96
2022-09-11T05:03:49.313Z,15.99
2022-09-11T05:04:49.331Z,15.93
2022-09-11T05:05:49.294Z,15.93
2022-09-11T05:06:49.264Z,15.96
2022-09-11T05:07:49.265Z,15.94
2022-09-11T05:08:49.244Z,16.00
2022-09-11T05:09:49.277Z,15.97
2022-09-11T05:10:49.218Z,15.99
2022-09-11T05:11:49.205Z,16.01
2022-09-11T05:12:49.195Z,16.03
2022-09-11T05:13:49.199Z,16.04
2022-09-11T05:14:49.184Z,16.06
2022-09-11T05:15:49.207Z,16.06
2022-09-11T05:16:49.164Z,16.06
2022-09-11T05:17:49.116Z,16.09
2022-09-11T05:18:49.103Z,16.07
2022-09-11T05:19:49.127Z,16.04
2022-09-11T05:20:49.078Z,16.01
2022-09-11T05:21:49.077Z,16.03
2022-09-11T05:22:49.047Z,16.01
2022-09-11T05:23:49.038Z,16.00
2022-09-11T05:24:49.048Z,16.03
2022-09-11T05:25:49.008Z,15.96
2022-09-11T05:26:48.989Z,15.92
2022-09-11T05:27:48.989Z,15.94
2022-09-11T05:28:48.966Z,15.94
2022-09-11T05:29:48.989Z,15.88
2022-09-11T05:30:48.949Z,15.94
2022-09-11T05:31:48.946Z,15.93
2022-09-11T05:32:48.933Z,15.93
2022-09-11T05:33:48.900Z,15.97
2022-09-11T05:34:48.915Z,15.94
2022-09-11T05:35:48.889Z,15.96
2022-09-11T05:36:48.879Z,15.97
2022-09-11T05:37:48.880Z,15.96
2022-09-11T05:38:48.829Z,15.99
2022-09-11T05:39:48.889Z,15.93
2022-09-11T05:40:48.801Z,15.96
2022-09-11T05:41:48.791Z,15.94
2022-09-11T05:42:48.782Z,15.94
2022-09-11T05:43:48.766Z,15.92
2022-09-11T05:44:48.771Z,15.88
2022-09-11T05:45:48.775Z,15.82
2022-09-11T05:46:48.726Z,15.76
2022-09-11T05:47:48.715Z,15.78
2022-09-11T05:48:48.694Z,15.82
2022-09-11T05:49:48.773Z,15.79
2022-09-11T05:50:48.673Z,15.79
2022-09-11T05:51:48.703Z,15.79
2022-09-11T05:52:48.641Z,15.81
2022-09-11T05:53:48.642Z,15.82
2022-09-11T05:54:48.633Z,15.82
2022-09-11T05:55:48.622Z,15.79
2022-09-11T05:56:48.593Z,15.82
2022-09-11T05:57:48.574Z,15.81
2022-09-11T05:58:48.562Z,15.84
2022-09-11T05:59:48.588Z,15.85
2022-09-11T06:00:48.535Z,15.84
2022-09-11T06:01:48.565Z,15.86
2022-09-11T06:02:48.505Z,15.88
2022-09-11T06:03:48.510Z,15.88
2022-09-11T06:04:48.495Z,15.79
2022-09-11T06:05:48.466Z,15.75
2022-09-11T06:06:48.447Z,15.75
2022-09-11T06:07:48.466Z,15.74
2022-09-11T06:08:48.446Z,15.68
2022-09-11T06:09:48.453Z,15.70
2022-09-11T06:10:48.395Z,15.74
2022-09-11T06:11:48.388Z,15.72
2022-09-11T06:12:48.370Z,15.70
2022-09-11T06:13:48.367Z,15.75
2022-09-11T06:14:48.358Z,15.78
2022-09-11T06:15:48.327Z,15.81
2022-09-11T06:16:48.424Z,15.86
2022-09-11T06:17:48.326Z,15.86
2022-09-11T06:18:48.285Z,15.89
2022-09-11T06:19:48.301Z,15.92
2022-09-11T06:20:48.258Z,15.89
2022-09-11T06:21:48.239Z,15.93
2022-09-11T06:22:48.232Z,15.96
2022-09-11T06:23:48.234Z,15.96
2022-09-11T06:24:48.233Z,16.00
2022-09-11T06:25:48.190Z,15.99
2022-09-11T06:26:48.169Z,15.93
2022-09-11T06:27:48.171Z,15.94
2022-09-11T06:28:48.149Z,15.94
2022-09-11T06:29:48.172Z,15.96
2022-09-11T06:30:48.189Z,15.94
2022-09-11T06:31:48.132Z,15.92
2022-09-11T06:32:48.103Z,15.93
2022-09-11T06:33:48.112Z,15.99
2022-09-11T06:34:48.068Z,15.97
2022-09-11T06:35:48.058Z,15.97
2022-09-11T06:36:51.817Z,16.00
2022-09-11T06:37:48.031Z,16.01
2022-09-11T06:38:48.053Z,16.00
2022-09-11T06:39:48.044Z,16.06
2022-09-11T06:40:47.989Z,16.03
2022-09-11T06:41:48.022Z,16.01
2022-09-11T06:42:47.964Z,16.03
2022-09-11T06:43:47.972Z,16.04
2022-09-11T06:44:50.739Z,16.07
2022-09-11T06:45:47.939Z,16.11
2022-09-11T06:46:47.914Z,16.12
2022-09-11T06:47:47.893Z,16.16
2022-09-11T06:48:47.906Z,16.20
2022-09-11T06:49:47.866Z,16.26
2022-09-11T06:50:47.845Z,16.26
2022-09-11T06:51:47.840Z,16.30
2022-09-11T06:52:47.815Z,16.27
2022-09-11T06:53:47.837Z,16.30
2022-09-11T06:54:47.805Z,16.25
2022-09-11T06:55:47.785Z,16.20
2022-09-11T06:56:47.776Z,16.22
2022-09-11T06:57:47.767Z,16.22
2022-09-11T06:58:47.771Z,16.14
2022-09-11T06:59:47.786Z,16.12
2022-09-11T07:00:47.746Z,16.12
2022-09-11T07:01:47.882Z,16.04
2022-09-11T07:02:47.689Z,16.06
2022-09-11T07:03:47.716Z,16.11
2022-09-11T07:04:47.657Z,16.06
2022-09-11T07:05:47.700Z,16.06
2022-09-11T07:06:47.663Z,16.11
2022-09-11T07:07:47.638Z,16.04
2022-09-11T07:08:47.597Z,16.01
2022-09-11T07:09:47.619Z,15.99
2022-09-11T07:10:47.579Z,15.93
2022-09-11T07:11:47.568Z,15.92
2022-09-11T07:12:47.558Z,15.84
2022-09-11T07:13:47.559Z,15.82
2022-09-11T07:14:47.551Z,15.85
2022-09-11T07:15:47.539Z,15.89
2022-09-11T07:16:47.549Z,15.89
2022-09-11T07:17:47.479Z,15.96
2022-09-11T07:18:47.470Z,15.99
2022-09-11T07:19:47.479Z,16.04
2022-09-11T07:20:47.440Z,16.03
2022-09-11T07:21:47.430Z,16.01
2022-09-11T07:22:47.420Z,16.04
2022-09-11T07:23:47.426Z,16.11
2022-09-11T07:24:47.412Z,16.12
2022-09-11T07:25:47.380Z,16.12
2022-09-11T07:26:47.359Z,16.14
2022-09-11T07:27:47.352Z,16.07
2022-09-11T07:28:47.342Z,16.00
2022-09-11T07:29:47.344Z,16.03
2022-09-11T07:30:47.364Z,16.04
2022-09-11T07:31:47.309Z,16.04
2022-09-11T07:32:47.281Z,16.12
2022-09-11T07:33:47.265Z,16.16
2022-09-11T07:34:47.273Z,16.18
2022-09-11T07:35:47.233Z,16.18
2022-09-11T07:36:47.223Z,16.20
2022-09-11T07:37:50.708Z,16.16
2022-09-11T07:38:47.203Z,16.23
2022-09-11T07:39:47.267Z,16.23
2022-09-11T07:40:47.174Z,16.22
2022-09-11T07:41:47.154Z,16.20
2022-09-11T07:42:47.147Z,16.12
2022-09-11T07:43:47.134Z,16.09
2022-09-11T07:44:47.135Z,16.11
2022-09-11T07:45:47.129Z,16.11
2022-09-11T07:46:47.089Z,16.06
2022-09-11T07:47:47.081Z,16.06
2022-09-11T07:48:47.067Z,16.04
2022-09-11T07:49:47.086Z,16.04
2022-09-11T07:50:47.037Z,16.07
2022-09-11T07:51:47.027Z,16.07
2022-09-11T07:52:47.008Z,16.06
2022-09-11T07:53:46.999Z,16.06
2022-09-11T07:54:47.010Z,16.06
2022-09-11T07:55:46.962Z,16.06
2022-09-11T07:56:46.954Z,16.07
2022-09-11T07:57:46.935Z,16.09
2022-09-11T07:58:46.927Z,16.03
2022-09-11T07:59:46.932Z,16.01
2022-09-11T08:00:46.897Z,16.00
2022-09-11T08:01:46.908Z,15.97
2022-09-11T08:02:46.884Z,16.00
2022-09-11T08:03:46.849Z,16.00
2022-09-11T08:04:46.871Z,15.99
2022-09-11T08:05:46.832Z,15.99
2022-09-11T08:06:46.822Z,16.03
2022-09-11T08:07:46.800Z,16.06
2022-09-11T08:08:46.790Z,16.12
2022-09-11T08:09:46.820Z,16.12
2022-09-11T08:10:46.762Z,16.12
2022-09-11T08:11:46.765Z,16.07
2022-09-11T08:12:46.752Z,16.07
2022-09-11T08:13:46.741Z,16.11
2022-09-11T08:14:46.773Z,16.07
2022-09-11T08:15:46.709Z,16.15
2022-09-11T08:16:46.715Z,16.20
2022-09-11T08:17:46.662Z,16.20
2022-09-11T08:18:46.679Z,16.25
2022-09-11T08:19:46.662Z,16.26
2022-09-11T08:20:46.624Z,16.26
2022-09-11T08:21:46.623Z,16.30
2022-09-11T08:22:46.599Z,16.31
2022-09-11T08:23:46.589Z,16.33
2022-09-11T08:24:46.600Z,16.31
2022-09-11T08:25:46.611Z,16.23
2022-09-11T08:26:49.002Z,16.26
2022-09-11T08:27:46.534Z,16.31
2022-09-11T08:28:46.525Z,16.30
2022-09-11T08:29:46.527Z,16.26
2022-09-11T08:30:46.493Z,16.23
2022-09-11T08:31:46.515Z,16.27
2022-09-11T08:32:46.467Z,16.27
2022-09-11T08:33:46.445Z,16.23
2022-09-11T08:34:46.463Z,16.27
2022-09-11T08:35:46.434Z,16.34
2022-09-11T08:36:46.437Z,16.40
2022-09-11T08:37:46.399Z,16.45
2022-09-11T08:38:46.386Z,16.48
2022-09-11T08:39:46.429Z,16.44
2022-09-11T08:40:46.360Z,16.45
2022-09-11T08:41:46.343Z,16.49
2022-09-11T08:42:46.338Z,16.44
2022-09-11T08:43:46.326Z,16.41
2022-09-11T08:44:46.347Z,16.42
2022-09-11T08:45:46.316Z,16.38
2022-09-11T08:46:46.278Z,16.42
2022-09-11T08:47:46.269Z,16.44
2022-09-11T08:48:46.257Z,16.44
2022-09-11T08:49:46.271Z,16.50
2022-09-11T08:50:46.219Z,16.50
2022-09-11T08:51:46.200Z,16.44
2022-09-11T08:52:46.202Z,16.37
2022-09-11T08:53:46.189Z,16.41
2022-09-11T08:54:46.192Z,16.42
2022-09-11T08:55:46.149Z,16.45
2022-09-11T08:56:46.138Z,16.42
2022-09-11T08:57:46.137Z,16.45
2022-09-11T08:58:46.122Z,16.44
2022-09-11T08:59:46.121Z,16.38
2022-09-11T09:00:46.081Z,16.37
2022-09-11T09:01:46.102Z,16.37
2022-09-11T09:02:46.061Z,16.38
2022-09-11T09:03:46.041Z,16.41
2022-09-11T09:04:46.051Z,16.42
2022-09-11T09:05:46.023Z,16.48
2022-09-11T09:06:46.000Z,16.50
2022-09-11T09:07:45.982Z,16.50
2022-09-11T09:08:45.972Z,16.48
2022-09-11T09:09:46.002Z,16.49
2022-09-11T09:10:45.944Z,16.49
2022-09-11T09:11:45.931Z,16.48
2022-09-11T09:12:45.926Z,16.48
2022-09-11T09:13:45.901Z,16.49
2022-09-11T09:14:45.921Z,16.49
2022-09-11T09:15:45.924Z,16.50
2022-09-11T09:16:45.863Z,16.52
2022-09-11T09:17:45.844Z,16.48
2022-09-11T09:18:45.834Z,16.45
2022-09-11T09:19:45.845Z,16.48
2022-09-11T09:20:45.833Z,16.53
2022-09-11T09:21:45.796Z,16.59
2022-09-11T09:22:45.783Z,16.59
2022-09-11T09:23:45.765Z,16.56
2022-09-11T09:24:45.776Z,16.53
2022-09-11T09:25:45.891Z,16.48
2022-09-11T09:26:45.728Z,16.48
2022-09-11T09:27:45.713Z,16.53
2022-09-11T09:28:45.708Z,16.58
2022-09-11T09:29:45.706Z,16.63
2022-09-11T09:30:45.735Z,16.67
2022-09-11T09:31:45.656Z,16.67
2022-09-11T09:32:45.647Z,16.60
2022-09-11T09:33:45.657Z,16.67
2022-09-11T09:34:45.666Z,16.65
2022-09-11T09:35:45.622Z,16.70
2022-09-11T09:36:45.596Z,16.70
2022-09-11T09:37:45.588Z,16.70
2022-09-11T09:38:45.565Z,16.68
2022-09-11T09:39:45.618Z,16.71
2022-09-11T09:40:45.538Z,16.70
2022-09-11T09:41:45.530Z,16.73
2022-09-11T09:42:45.508Z,16.77
2022-09-11T09:43:45.508Z,16.74
2022-09-11T09:44:45.510Z,16.77
2022-09-11T09:45:45.540Z,16.75
2022-09-11T09:46:50.212Z,16.77
2022-09-11T09:47:46.449Z,16.75
2022-09-11T09:48:45.431Z,16.73
2022-09-11T09:49:45.437Z,16.74
2022-09-11T09:50:45.422Z,16.74
2022-09-11T09:51:45.381Z,16.67
2022-09-11T09:52:45.381Z,16.59
2022-09-11T09:53:45.351Z,16.60
2022-09-11T09:54:45.379Z,16.67
2022-09-11T09:55:45.338Z,16.71
2022-09-11T09:56:45.345Z,16.71
2022-09-11T09:57:45.302Z,16.70
2022-09-11T09:58:45.295Z,16.75
2022-09-11T09:59:45.312Z,16.78
2022-09-11T10:00:45.263Z,16.81
2022-09-11T10:01:45.417Z,16.86
2022-09-11T10:02:45.243Z,16.88
2022-09-11T10:03:45.232Z,16.95
2022-09-11T10:04:45.255Z,16.93
2022-09-11T10:05:45.194Z,17.03
2022-09-11T10:06:45.184Z,17.04
2022-09-11T10:07:45.175Z,17.06
2022-09-11T10:08:45.164Z,17.10
2022-09-11T10:09:45.165Z,17.10
2022-09-11T10:10:45.137Z,17.11
2022-09-11T10:11:45.114Z,17.00
2022-09-11T10:12:45.119Z,17.06
2022-09-11T10:13:45.085Z,17.08
2022-09-11T10:14:51.558Z,17.10
2022-09-11T10:15:46.194Z,17.14
2022-09-11T10:16:45.046Z,17.13
2022-09-11T10:17:45.026Z,16.99
2022-09-11T10:18:45.166Z,17.04
2022-09-11T10:19:45.046Z,17.10
2022-09-11T10:20:45.007Z,17.14
2022-09-11T10:21:44.978Z,17.17
2022-09-11T10:22:44.967Z,17.15
2022-09-11T10:23:44.967Z,17.13
2022-09-11T10:24:44.969Z,17.14
2022-09-11T10:25:44.925Z,17.13
2022-09-11T10:26:44.918Z,17.13
2022-09-11T10:27:44.889Z,17.06
2022-09-11T10:28:44.899Z,17.06
2022-09-11T10:29:44.888Z,17.11
2022-09-11T10:30:44.894Z,17.15
2022-09-11T10:31:44.842Z,17.10
2022-09-11T10:32:44.837Z,17.13
2022-09-11T10:33:44.819Z,17.08
2022-09-11T10:34:44.850Z,17.11
2022-09-11T10:35:44.790Z,17.17
2022-09-11T10:36:44.777Z,17.23
2022-09-11T10:37:44.761Z,17.17
2022-09-11T10:38:44.945Z,17.25
2022-09-11T10:39:44.792Z,17.28
2022-09-11T10:40:44.724Z,17.35
2022-09-11T10:41:44.702Z,17.36
2022-09-11T10:42:44.692Z,17.43
2022-09-11T10:43:44.712Z,17.55
2022-09-11T10:44:44.672Z,17.69
2022-09-11T10:45:44.675Z,17.82
2022-09-11T10:46:44.662Z,17.94
2022-09-11T10:47:44.620Z,18.06
2022-09-11T10:48:44.633Z,18.15
2022-09-11T10:49:44.603Z,18.28
2022-09-11T10:50:44.593Z,18.29
2022-09-11T10:51:47.543Z,18.40
2022-09-11T10:52:44.574Z,18.44
2022-09-11T10:53:44.564Z,18.19
2022-09-11T10:54:44.558Z,18.13
2022-09-11T10:55:44.519Z,18.22
2022-09-11T10:56:44.506Z,18.33
2022-09-11T10:57:44.487Z,18.44
2022-09-11T10:58:44.625Z,18.52
2022-09-11T10:59:44.465Z,18.59
2022-09-11T11:00:44.456Z,18.67
2022-09-11T11:01:44.486Z,18.74
2022-09-11T11:02:44.424Z,18.77
2022-09-11T11:03:44.462Z,18.84
2022-09-11T11:04:44.397Z,18.79
2022-09-11T11:05:44.380Z,18.68
2022-09-11T11:06:44.368Z,18.68
2022-09-11T11:07:44.356Z,18.76
2022-09-11T11:08:44.526Z,18.74
2022-09-11T11:09:44.327Z,18.74
2022-09-11T11:10:44.319Z,18.77
2022-09-11T11:11:44.298Z,18.82
2022-09-11T11:12:44.289Z,18.77
2022-09-11T11:13:44.278Z,18.76
2022-09-11T11:14:44.295Z,18.79
2022-09-11T11:15:44.266Z,18.83
2022-09-11T11:16:44.239Z,18.76
2022-09-11T11:17:44.221Z,18.73
2022-09-11T11:18:44.311Z,18.80
2022-09-11T11:19:44.233Z,18.90
2022-09-11T11:20:44.181Z,19.01
2022-09-11T11:21:44.162Z,19.13
2022-09-11T11:22:44.161Z,19.02
2022-09-11T11:23:44.143Z,19.01
2022-09-11T11:24:44.154Z,18.98
2022-09-11T11:25:44.114Z,18.99
2022-09-11T11:26:44.102Z,18.73
2022-09-11T11:27:44.083Z,18.72
2022-09-11T11:28:44.223Z,18.82
2022-09-11T11:29:44.081Z,18.84
2022-09-11T11:30:44.050Z,18.94
2022-09-11T11:31:44.541Z,19.13
2022-09-11T11:32:44.084Z,19.31
2022-09-11T11:33:44.003Z,19.48
2022-09-11T11:34:44.028Z,19.60
2022-09-11T11:35:43.979Z,19.76
2022-09-11T11:36:43.965Z,19.73
2022-09-11T11:37:43.965Z,19.63
2022-09-11T11:38:44.102Z,19.53
2022-09-11T11:39:43.987Z,19.54
2022-09-11T11:40:43.916Z,19.48
2022-09-11T11:41:43.894Z,19.31
2022-09-11T11:42:43.885Z,19.32
2022-09-11T11:43:43.871Z,19.68
2022-09-11T11:44:43.877Z,20.58
2022-09-11T11:45:43.871Z,21.23
2022-09-11T11:46:43.828Z,21.90
2022-09-11T11:47:43.809Z,22.64
2022-09-11T11:48:43.938Z,23.11
2022-09-11T11:49:43.809Z,23.50
2022-09-11T11:50:43.778Z,23.67
2022-09-11T11:51:43.768Z,24.02
2022-09-11T11:52:43.751Z,24.41
2022-09-11T11:53:43.781Z,24.85
2022-09-11T11:54:43.717Z,24.95
2022-09-11T11:55:43.710Z,24.87
2022-09-11T11:56:43.689Z,24.87
2022-09-11T11:57:43.712Z,24.68
2022-09-11T11:58:43.746Z,24.67
2022-09-11T11:59:43.659Z,24.79
2022-09-11T12:00:43.632Z,24.69
2022-09-11T12:01:43.663Z,24.97
2022-09-11T12:02:43.621Z,25.07
2022-09-11T12:03:43.647Z,25.10
2022-09-11T12:04:43.586Z,25.16
2022-09-11T12:05:43.584Z,24.64
2022-09-11T12:06:43.576Z,24.44
2022-09-11T12:07:43.555Z,24.02
2022-09-11T12:08:43.659Z,23.55
2022-09-11T12:09:43.516Z,23.17
2022-09-11T12:10:43.506Z,22.80
2022-09-11T12:11:43.497Z,23.07
2022-09-11T12:12:43.476Z,23.02
2022-09-11T12:13:43.508Z,22.99
2022-09-11T12:14:43.456Z,23.17
2022-09-11T12:15:43.469Z,22.74
2022-09-11T12:16:43.427Z,22.25
2022-09-11T12:17:43.419Z,21.83
2022-09-11T12:18:43.663Z,21.76
2022-09-11T12:19:43.390Z,21.53
2022-09-11T12:20:43.369Z,21.85
2022-09-11T12:21:43.360Z,21.98
2022-09-11T12:22:43.348Z,21.94
2022-09-11T12:23:43.368Z,21.71
2022-09-11T12:24:43.320Z,21.54
2022-09-11T12:25:43.320Z,21.20
2022-09-11T12:26:43.291Z,20.89
2022-09-11T12:27:43.282Z,20.66
2022-09-11T12:28:43.423Z,20.35
2022-09-11T12:29:43.253Z,20.23
2022-09-11T12:30:43.246Z,20.08
2022-09-11T12:31:43.271Z,19.97
2022-09-11T12:32:43.233Z,19.91
2022-09-11T12:33:43.224Z,19.93
2022-09-11T12:34:43.187Z,20.43
2022-09-11T12:35:43.174Z,20.81
2022-09-11T12:36:43.155Z,21.02
2022-09-11T12:37:43.148Z,21.17
2022-09-11T12:38:43.225Z,21.42
2022-09-11T12:39:43.189Z,21.69
2022-09-11T12:40:43.116Z,21.85
2022-09-11T12:41:43.094Z,21.99
2022-09-11T12:42:43.075Z,21.82
2022-09-11T12:43:43.100Z,21.97
2022-09-11T12:44:43.048Z,22.02
2022-09-11T12:45:43.078Z,21.95
2022-09-11T12:46:43.026Z,21.85
2022-09-11T12:47:43.019Z,21.85
2022-09-11T12:48:43.133Z,21.76
2022-09-11T12:49:42.990Z,21.60
2022-09-11T12:50:42.969Z,21.59
2022-09-11T12:51:42.964Z,21.69
2022-09-11T12:52:42.944Z,21.78